Domov               UVHVVR             MKGP            O straneh              
ZDRAVSTVENO VARSTVO RASTLIN
  MREŽA AGROMET. POSTAJ
 ► PROGNOSTIČNA OBVESTILA
AGROMETEOROLOŠKI PODATKI -
ARSO
OBVLADOVANJE TVEGANJ ZARADI
NEUGODNIH VREMENSKIH RAZMER
  ► NARAVNE NESREČE
  ► SUŠA/MOČA
  ► NAMAKANJE
  ► ŽLED (gozdarstvo)
KARTOGRAFSKI PRIKAZI
SPLETNE POVEZAVE
PROJEKTI IN PUBLIKACIJE

AGROMETEOROLOŠKA MREŽA: VREMENSKE POSTAJE IN FENOLOŠKA OPAZOVANJA

Pregled podatkov za lokacijo Slom, meteorološka postaja 42786

Pregled senzorjev na lokaciji

ID Ime Zadnja
vrednost
Datum
zadnje
spremembe
Tip
senzorja
2128 Omočenost lista (U) 0 U 25.2.2018 15:30 A730WET
2129 Padavine (mm) 0 mm 25.2.2018 15:30 Rain-O-Matic
2127 Relativna vlaga 2 m (% RH) 54,58 % RH 25.2.2018 15:30 50YA
2126 Temperatura 2 m (°C) -5,27 °C 25.2.2018 15:30 50YA

Pregled podatkov zadnjih 24 ur

Zap.
št.
Datum in čas Slom
Omočenost
lista
Padavine Relativna
vlaga
2
m
Temperatura
2
m
1 25.2.2018 16:00
2 25.2.2018 15:30 0 0 54,6 -5,3
3 25.2.2018 15:00 0 0 53,5 -4,6
4 25.2.2018 14:30 0 0,2 52,5 -4,2
5 25.2.2018 14:00 0 0 52,6 -4,3
6 25.2.2018 13:30 0 0,2 53 -4,2
7 25.2.2018 13:00 0 0 55 -5,2
8 25.2.2018 12:30 0 0 58,1 -6,4
9 25.2.2018 12:00 0 0 59,9 -6,9
10 25.2.2018 11:30 0 0 59,1 -6,7
11 25.2.2018 11:00 0 0 56 -5,7
12 25.2.2018 10:30 0 0 58,8 -6,4
13 25.2.2018 10:00 0 0 62,9 -7,8
14 25.2.2018 09:30 0 0 63,4 -8,1
15 25.2.2018 09:00 0 0 63,1 -8,2
16 25.2.2018 08:30 0 0 63,2 -8,3
17 25.2.2018 08:00 0 0 65,8 -9
18 25.2.2018 07:30 0 0 67,9 -9,3
19 25.2.2018 07:00 0 0 68,6 -9,3
20 25.2.2018 06:30 0 0 67,4 -8,8
21 25.2.2018 06:00 0 0 67,8 -8,4
22 25.2.2018 05:30 0 0 69,1 -8
23 25.2.2018 05:00 0 0 71,9 -7,6
24 25.2.2018 04:30 0 0 70,6 -7,3
25 25.2.2018 04:00 0 0 69,4 -7,1
26 25.2.2018 03:30 0 0 69,1 -7
27 25.2.2018 03:00 0 0 68,9 -7,1
28 25.2.2018 02:30 0 0 67,9 -7,1
29 25.2.2018 02:00 0 0 65,1 -6,5
30 25.2.2018 01:30 0 0 62,4 -5,7
31 25.2.2018 01:00 0 0 62,6 -5,2
32 25.2.2018 00:30 0 0 63,6 -5
33 25.2.2018 00:00 0 0 63,8 -5
34 24.2.2018 23:30 0 0 62,8 -4,8
35 24.2.2018 23:00 0 0 63,4 -4,7
36 24.2.2018 22:30 0 0 68,8 -4,8
37 24.2.2018 22:00 0 0 72,3 -4,6
38 24.2.2018 21:30 0 0 69,5 -4,2
39 24.2.2018 21:00 0 0 65,9 -3,7
40 24.2.2018 20:30 0 0 64,5 -3,3
41 24.2.2018 20:00 0 0 64,9 -3,2
42 24.2.2018 19:30 0 0 65,1 -3
43 24.2.2018 19:00 0 0 66,1 -2,7
44 24.2.2018 18:30 0 0 69 -2,6
45 24.2.2018 18:00 0 0 69,1 -2,5
46 24.2.2018 17:30 0 0 73,9 -2,3
47 24.2.2018 17:00 0 0 75,8 -2,2
48 24.2.2018 16:30 0 0 74,3 -2
© 2011 Ministrstvo za kmetijstvo, gozdarstvo in prehrano. Vse pravice pridržane.